sensor_id;sensor_type;location;lat;lon;timestamp;P1;durP1;ratioP1;P2;durP2;ratioP2
17858;SDS011;35426;30.698;104.050;2022-08-14T00:01:23;23.17;;;14.60;;
17858;SDS011;35426;30.698;104.050;2022-08-14T00:04:00;18.52;;;13.65;;
17858;SDS011;35426;30.698;104.050;2022-08-14T00:06:54;24.35;;;14.52;;
17858;SDS011;35426;30.698;104.050;2022-08-14T00:09:27;21.25;;;14.77;;
17858;SDS011;35426;30.698;104.050;2022-08-14T00:12:21;26.95;;;14.65;;
17858;SDS011;35426;30.698;104.050;2022-08-14T00:15:06;20.30;;;14.27;;
17858;SDS011;35426;30.698;104.050;2022-08-14T00:17:44;26.02;;;14.15;;
17858;SDS011;35426;30.698;104.050;2022-08-14T00:20:23;23.42;;;14.15;;
17858;SDS011;35426;30.698;104.050;2022-08-14T00:23:10;18.40;;;13.52;;
17858;SDS011;35426;30.698;104.050;2022-08-14T00:25:46;20.88;;;13.93;;
17858;SDS011;35426;30.698;104.050;2022-08-14T00:28:34;29.70;;;15.20;;
17858;SDS011;35426;30.698;104.050;2022-08-14T00:31:09;25.15;;;14.75;;
17858;SDS011;35426;30.698;104.050;2022-08-14T00:33:43;24.70;;;13.82;;
17858;SDS011;35426;30.698;104.050;2022-08-14T00:36:22;22.58;;;14.07;;
17858;SDS011;35426;30.698;104.050;2022-08-14T00:39:15;22.13;;;14.48;;
17858;SDS011;35426;30.698;104.050;2022-08-14T00:41:49;21.17;;;14.15;;
17858;SDS011;35426;30.698;104.050;2022-08-14T00:44:24;24.17;;;15.45;;
17858;SDS011;35426;30.698;104.050;2022-08-14T00:47:00;23.45;;;14.40;;
17858;SDS011;35426;30.698;104.050;2022-08-14T00:49:38;25.83;;;15.30;;
17858;SDS011;35426;30.698;104.050;2022-08-14T00:52:14;23.02;;;15.43;;
17858;SDS011;35426;30.698;104.050;2022-08-14T00:54:50;27.67;;;15.82;;
17858;SDS011;35426;30.698;104.050;2022-08-14T00:57:28;25.40;;;16.02;;
17858;SDS011;35426;30.698;104.050;2022-08-14T01:00:04;22.48;;;14.90;;
17858;SDS011;35426;30.698;104.050;2022-08-14T01:03:00;24.92;;;16.65;;
17858;SDS011;35426;30.698;104.050;2022-08-14T01:05:36;26.02;;;16.42;;
17858;SDS011;35426;30.698;104.050;2022-08-14T01:08:21;28.23;;;16.52;;
17858;SDS011;35426;30.698;104.050;2022-08-14T01:11:17;26.25;;;15.45;;
17858;SDS011;35426;30.698;104.050;2022-08-14T01:13:50;23.08;;;15.73;;
17858;SDS011;35426;30.698;104.050;2022-08-14T01:16:49;26.15;;;15.20;;
17858;SDS011;35426;30.698;104.050;2022-08-14T01:19:23;26.73;;;16.45;;
17858;SDS011;35426;30.698;104.050;2022-08-14T01:22:18;27.67;;;16.88;;
17858;SDS011;35426;30.698;104.050;2022-08-14T01:24:53;22.02;;;16.13;;
17858;SDS011;35426;30.698;104.050;2022-08-14T01:27:29;22.45;;;17.02;;
17858;SDS011;35426;30.698;104.050;2022-08-14T01:30:23;27.15;;;16.13;;
17858;SDS011;35426;30.698;104.050;2022-08-14T01:33:06;21.73;;;15.82;;
17858;SDS011;35426;30.698;104.050;2022-08-14T01:35:43;27.00;;;16.73;;
17858;SDS011;35426;30.698;104.050;2022-08-14T01:38:37;24.38;;;14.88;;
17858;SDS011;35426;30.698;104.050;2022-08-14T01:41:16;27.13;;;16.65;;
17858;SDS011;35426;30.698;104.050;2022-08-14T01:43:59;23.10;;;15.70;;
17858;SDS011;35426;30.698;104.050;2022-08-14T01:46:57;28.02;;;16.60;;
17858;SDS011;35426;30.698;104.050;2022-08-14T01:49:33;29.77;;;17.02;;
17858;SDS011;35426;30.698;104.050;2022-08-14T01:52:13;24.20;;;17.13;;
17858;SDS011;35426;30.698;104.050;2022-08-14T01:55:11;28.48;;;18.58;;
17858;SDS011;35426;30.698;104.050;2022-08-14T01:57:51;25.13;;;18.38;;
17858;SDS011;35426;30.698;104.050;2022-08-14T02:00:45;31.23;;;18.15;;
17858;SDS011;35426;30.698;104.050;2022-08-14T02:03:24;25.50;;;16.50;;
17858;SDS011;35426;30.698;104.050;2022-08-14T02:06:01;29.38;;;18.20;;
17858;SDS011;35426;30.698;104.050;2022-08-14T02:08:55;28.23;;;17.73;;
17858;SDS011;35426;30.698;104.050;2022-08-14T02:11:47;31.17;;;17.60;;
17858;SDS011;35426;30.698;104.050;2022-08-14T02:14:23;30.33;;;19.70;;
17858;SDS011;35426;30.698;104.050;2022-08-14T02:16:58;33.22;;;19.88;;
17858;SDS011;35426;30.698;104.050;2022-08-14T02:19:32;32.53;;;19.63;;
17858;SDS011;35426;30.698;104.050;2022-08-14T02:22:06;30.63;;;20.25;;
17858;SDS011;35426;30.698;104.050;2022-08-14T02:24:50;28.83;;;19.15;;
17858;SDS011;35426;30.698;104.050;2022-08-14T02:27:26;28.77;;;19.35;;
17858;SDS011;35426;30.698;104.050;2022-08-14T02:30:20;25.58;;;18.38;;
17858;SDS011;35426;30.698;104.050;2022-08-14T02:32:58;35.88;;;21.67;;
17858;SDS011;35426;30.698;104.050;2022-08-14T02:35:33;32.35;;;19.67;;
17858;SDS011;35426;30.698;104.050;2022-08-14T02:38:19;32.97;;;18.77;;
17858;SDS011;35426;30.698;104.050;2022-08-14T02:41:02;35.85;;;23.20;;
17858;SDS011;35426;30.698;104.050;2022-08-14T02:43:40;42.55;;;26.27;;
17858;SDS011;35426;30.698;104.050;2022-08-14T02:46:15;35.15;;;24.95;;
17858;SDS011;35426;30.698;104.050;2022-08-14T02:48:58;32.85;;;19.85;;
17858;SDS011;35426;30.698;104.050;2022-08-14T02:51:33;29.75;;;20.85;;
17858;SDS011;35426;30.698;104.050;2022-08-14T02:54:08;31.77;;;20.35;;
17858;SDS011;35426;30.698;104.050;2022-08-14T02:56:52;36.42;;;20.45;;
17858;SDS011;35426;30.698;104.050;2022-08-14T02:59:50;35.65;;;24.00;;
17858;SDS011;35426;30.698;104.050;2022-08-14T03:02:24;34.28;;;21.33;;
17858;SDS011;35426;30.698;104.050;2022-08-14T03:05:21;29.48;;;20.90;;
17858;SDS011;35426;30.698;104.050;2022-08-14T03:08:03;36.08;;;23.35;;
17858;SDS011;35426;30.698;104.050;2022-08-14T03:10:43;38.88;;;23.85;;
17858;SDS011;35426;30.698;104.050;2022-08-14T03:13:17;38.72;;;25.55;;
17858;SDS011;35426;30.698;104.050;2022-08-14T03:15:54;42.80;;;27.02;;
17858;SDS011;35426;30.698;104.050;2022-08-14T03:18:37;37.83;;;25.52;;
17858;SDS011;35426;30.698;104.050;2022-08-14T03:21:12;41.55;;;26.23;;
17858;SDS011;35426;30.698;104.050;2022-08-14T03:23:49;38.60;;;26.40;;
17858;SDS011;35426;30.698;104.050;2022-08-14T03:26:28;41.85;;;26.73;;
17858;SDS011;35426;30.698;104.050;2022-08-14T03:29:07;41.95;;;28.42;;
17858;SDS011;35426;30.698;104.050;2022-08-14T03:31:44;44.42;;;28.48;;
17858;SDS011;35426;30.698;104.050;2022-08-14T03:34:19;38.10;;;26.33;;
17858;SDS011;35426;30.698;104.050;2022-08-14T03:37:18;42.30;;;28.05;;
17858;SDS011;35426;30.698;104.050;2022-08-14T03:40:14;40.60;;;25.02;;
17858;SDS011;35426;30.698;104.050;2022-08-14T03:42:48;33.83;;;20.05;;
17858;SDS011;35426;30.698;104.050;2022-08-14T03:45:27;28.90;;;18.85;;
17858;SDS011;35426;30.698;104.050;2022-08-14T03:48:09;33.35;;;18.27;;
17858;SDS011;35426;30.698;104.050;2022-08-14T03:50:57;31.35;;;18.30;;
17858;SDS011;35426;30.698;104.050;2022-08-14T03:53:35;31.92;;;17.60;;
17858;SDS011;35426;30.698;104.050;2022-08-14T03:56:11;28.35;;;16.48;;
17858;SDS011;35426;30.698;104.050;2022-08-14T03:58:48;29.13;;;17.23;;
17858;SDS011;35426;30.698;104.050;2022-08-14T04:01:25;27.40;;;17.35;;
17858;SDS011;35426;30.698;104.050;2022-08-14T04:04:10;28.08;;;16.85;;
17858;SDS011;35426;30.698;104.050;2022-08-14T04:06:44;31.35;;;15.90;;
17858;SDS011;35426;30.698;104.050;2022-08-14T04:09:19;23.05;;;16.23;;
17858;SDS011;35426;30.698;104.050;2022-08-14T04:11:54;27.88;;;16.30;;
17858;SDS011;35426;30.698;104.050;2022-08-14T04:14:32;27.15;;;18.30;;
17858;SDS011;35426;30.698;104.050;2022-08-14T04:17:11;27.63;;;16.92;;
17858;SDS011;35426;30.698;104.050;2022-08-14T04:19:47;27.77;;;16.92;;
17858;SDS011;35426;30.698;104.050;2022-08-14T04:22:21;25.80;;;16.70;;
17858;SDS011;35426;30.698;104.050;2022-08-14T04:25:08;22.45;;;15.82;;
17858;SDS011;35426;30.698;104.050;2022-08-14T04:27:42;26.80;;;14.63;;
17858;SDS011;35426;30.698;104.050;2022-08-14T04:30:31;28.02;;;16.00;;
17858;SDS011;35426;30.698;104.050;2022-08-14T04:33:09;28.55;;;15.75;;
17858;SDS011;35426;30.698;104.050;2022-08-14T04:35:50;24.98;;;15.10;;
17858;SDS011;35426;30.698;104.050;2022-08-14T04:38:24;23.42;;;14.77;;
17858;SDS011;35426;30.698;104.050;2022-08-14T04:41:14;23.23;;;14.77;;
17858;SDS011;35426;30.698;104.050;2022-08-14T04:44:10;20.65;;;14.25;;
17858;SDS011;35426;30.698;104.050;2022-08-14T04:47:04;21.60;;;14.00;;
17858;SDS011;35426;30.698;104.050;2022-08-14T04:49:58;25.42;;;15.70;;
17858;SDS011;35426;30.698;104.050;2022-08-14T04:52:36;23.80;;;15.57;;
17858;SDS011;35426;30.698;104.050;2022-08-14T04:55:11;23.73;;;16.02;;
17858;SDS011;35426;30.698;104.050;2022-08-14T04:57:45;21.90;;;15.90;;
17858;SDS011;35426;30.698;104.050;2022-08-14T05:00:20;25.15;;;15.52;;
17858;SDS011;35426;30.698;104.050;2022-08-14T05:02:57;23.38;;;15.23;;
17858;SDS011;35426;30.698;104.050;2022-08-14T05:05:34;21.60;;;14.90;;
17858;SDS011;35426;30.698;104.050;2022-08-14T05:08:12;25.63;;;15.63;;
17858;SDS011;35426;30.698;104.050;2022-08-14T05:11:06;20.00;;;14.57;;
17858;SDS011;35426;30.698;104.050;2022-08-14T05:13:41;23.65;;;14.90;;
17858;SDS011;35426;30.698;104.050;2022-08-14T05:16:35;22.42;;;15.07;;
17858;SDS011;35426;30.698;104.050;2022-08-14T05:19:13;21.83;;;14.25;;
17858;SDS011;35426;30.698;104.050;2022-08-14T05:21:56;22.25;;;13.32;;
17858;SDS011;35426;30.698;104.050;2022-08-14T05:25:06;22.30;;;14.02;;
17858;SDS011;35426;30.698;104.050;2022-08-14T05:27:41;21.80;;;14.40;;
17858;SDS011;35426;30.698;104.050;2022-08-14T05:30:16;18.52;;;12.77;;
17858;SDS011;35426;30.698;104.050;2022-08-14T05:32:52;23.67;;;14.13;;
17858;SDS011;35426;30.698;104.050;2022-08-14T05:35:29;18.75;;;13.88;;
17858;SDS011;35426;30.698;104.050;2022-08-14T05:38:09;25.42;;;13.13;;
17858;SDS011;35426;30.698;104.050;2022-08-14T05:41:05;23.17;;;12.85;;
17858;SDS011;35426;30.698;104.050;2022-08-14T05:43:44;18.60;;;12.95;;
17858;SDS011;35426;30.698;104.050;2022-08-14T05:46:20;20.27;;;12.52;;
17858;SDS011;35426;30.698;104.050;2022-08-14T05:48:56;21.58;;;11.65;;
17858;SDS011;35426;30.698;104.050;2022-08-14T05:51:36;17.75;;;11.85;;
17858;SDS011;35426;30.698;104.050;2022-08-14T05:54:10;18.63;;;11.00;;
17858;SDS011;35426;30.698;104.050;2022-08-14T05:56:56;17.52;;;11.00;;
17858;SDS011;35426;30.698;104.050;2022-08-14T05:59:32;13.98;;;10.32;;
17858;SDS011;35426;30.698;104.050;2022-08-14T06:02:07;14.77;;;10.30;;
17858;SDS011;35426;30.698;104.050;2022-08-14T06:04:43;18.45;;;12.85;;
17858;SDS011;35426;30.698;104.050;2022-08-14T06:07:17;21.13;;;15.40;;
17858;SDS011;35426;30.698;104.050;2022-08-14T06:09:53;22.80;;;15.15;;
17858;SDS011;35426;30.698;104.050;2022-08-14T06:12:33;21.25;;;15.18;;
17858;SDS011;35426;30.698;104.050;2022-08-14T06:15:27;22.02;;;14.40;;
17858;SDS011;35426;30.698;104.050;2022-08-14T06:18:04;22.33;;;14.02;;
17858;SDS011;35426;30.698;104.050;2022-08-14T06:20:44;25.25;;;14.65;;
17858;SDS011;35426;30.698;104.050;2022-08-14T06:23:24;20.55;;;14.38;;
17858;SDS011;35426;30.698;104.050;2022-08-14T06:26:00;20.98;;;14.52;;
17858;SDS011;35426;30.698;104.050;2022-08-14T06:28:39;20.58;;;13.70;;
17858;SDS011;35426;30.698;104.050;2022-08-14T06:31:21;23.00;;;14.07;;
17858;SDS011;35426;30.698;104.050;2022-08-14T06:33:55;23.80;;;13.52;;
17858;SDS011;35426;30.698;104.050;2022-08-14T06:36:50;20.95;;;13.90;;
17858;SDS011;35426;30.698;104.050;2022-08-14T06:39:25;20.85;;;13.00;;
17858;SDS011;35426;30.698;104.050;2022-08-14T06:42:05;23.38;;;14.20;;
17858;SDS011;35426;30.698;104.050;2022-08-14T06:45:02;24.02;;;14.52;;
17858;SDS011;35426;30.698;104.050;2022-08-14T06:47:37;23.85;;;13.98;;
17858;SDS011;35426;30.698;104.050;2022-08-14T06:50:13;22.02;;;14.32;;
17858;SDS011;35426;30.698;104.050;2022-08-14T06:52:55;20.70;;;14.25;;
17858;SDS011;35426;30.698;104.050;2022-08-14T06:55:32;23.08;;;15.27;;
17858;SDS011;35426;30.698;104.050;2022-08-14T06:58:25;22.92;;;14.70;;
17858;SDS011;35426;30.698;104.050;2022-08-14T07:01:04;24.83;;;15.43;;
17858;SDS011;35426;30.698;104.050;2022-08-14T07:03:55;21.30;;;14.43;;
17858;SDS011;35426;30.698;104.050;2022-08-14T07:06:52;26.52;;;14.45;;
17858;SDS011;35426;30.698;104.050;2022-08-14T07:09:27;21.65;;;14.25;;
17858;SDS011;35426;30.698;104.050;2022-08-14T07:12:17;19.67;;;14.38;;
17858;SDS011;35426;30.698;104.050;2022-08-14T07:15:13;20.40;;;13.65;;
17858;SDS011;35426;30.698;104.050;2022-08-14T07:17:49;20.65;;;14.05;;
17858;SDS011;35426;30.698;104.050;2022-08-14T07:20:24;21.75;;;13.68;;
17858;SDS011;35426;30.698;104.050;2022-08-14T07:23:03;18.88;;;13.48;;
17858;SDS011;35426;30.698;104.050;2022-08-14T07:25:48;19.88;;;12.73;;
17858;SDS011;35426;30.698;104.050;2022-08-14T07:28:27;18.58;;;13.02;;
17858;SDS011;35426;30.698;104.050;2022-08-14T07:31:11;20.85;;;13.68;;
17858;SDS011;35426;30.698;104.050;2022-08-14T07:33:48;18.83;;;12.25;;
17858;SDS011;35426;30.698;104.050;2022-08-14T07:36:23;19.30;;;13.05;;
17858;SDS011;35426;30.698;104.050;2022-08-14T07:38:59;21.23;;;12.27;;
17858;SDS011;35426;30.698;104.050;2022-08-14T07:41:40;14.38;;;12.32;;
17858;SDS011;35426;30.698;104.050;2022-08-14T07:44:17;18.63;;;12.20;;
17858;SDS011;35426;30.698;104.050;2022-08-14T07:47:11;18.42;;;12.43;;
17858;SDS011;35426;30.698;104.050;2022-08-14T07:50:02;17.98;;;12.00;;
17858;SDS011;35426;30.698;104.050;2022-08-14T07:52:47;17.50;;;12.55;;
17858;SDS011;35426;30.698;104.050;2022-08-14T07:55:22;16.45;;;11.77;;
17858;SDS011;35426;30.698;104.050;2022-08-14T07:57:57;21.50;;;12.20;;
17858;SDS011;35426;30.698;104.050;2022-08-14T08:00:54;18.38;;;11.60;;
17858;SDS011;35426;30.698;104.050;2022-08-14T08:03:30;15.48;;;11.75;;
17858;SDS011;35426;30.698;104.050;2022-08-14T08:06:16;19.10;;;11.98;;
17858;SDS011;35426;30.698;104.050;2022-08-14T08:08:52;17.75;;;12.27;;
17858;SDS011;35426;30.698;104.050;2022-08-14T08:11:31;18.83;;;12.10;;
17858;SDS011;35426;30.698;104.050;2022-08-14T08:14:08;16.65;;;11.82;;
17858;SDS011;35426;30.698;104.050;2022-08-14T08:16:45;19.52;;;11.73;;
17858;SDS011;35426;30.698;104.050;2022-08-14T08:19:19;21.73;;;11.80;;
17858;SDS011;35426;30.698;104.050;2022-08-14T08:22:05;18.20;;;11.05;;
17858;SDS011;35426;30.698;104.050;2022-08-14T08:24:40;18.25;;;11.57;;
17858;SDS011;35426;30.698;104.050;2022-08-14T08:27:18;19.73;;;11.70;;
17858;SDS011;35426;30.698;104.050;2022-08-14T08:30:01;17.50;;;11.73;;
17858;SDS011;35426;30.698;104.050;2022-08-14T08:32:39;20.73;;;12.07;;
17858;SDS011;35426;30.698;104.050;2022-08-14T08:35:18;17.27;;;11.13;;
17858;SDS011;35426;30.698;104.050;2022-08-14T08:38:16;14.35;;;10.77;;
17858;SDS011;35426;30.698;104.050;2022-08-14T08:41:11;17.15;;;11.15;;
17858;SDS011;35426;30.698;104.050;2022-08-14T08:43:49;19.10;;;11.07;;
17858;SDS011;35426;30.698;104.050;2022-08-14T08:46:23;15.32;;;10.95;;
17858;SDS011;35426;30.698;104.050;2022-08-14T08:49:02;16.55;;;10.90;;
17858;SDS011;35426;30.698;104.050;2022-08-14T08:51:39;19.35;;;10.85;;
17858;SDS011;35426;30.698;104.050;2022-08-14T08:54:17;21.35;;;11.68;;
17858;SDS011;35426;30.698;104.050;2022-08-14T08:56:58;18.77;;;10.60;;
17858;SDS011;35426;30.698;104.050;2022-08-14T08:59:34;17.27;;;10.93;;
17858;SDS011;35426;30.698;104.050;2022-08-14T09:02:09;15.35;;;10.52;;
17858;SDS011;35426;30.698;104.050;2022-08-14T09:04:43;18.88;;;11.02;;
17858;SDS011;35426;30.698;104.050;2022-08-14T09:07:24;15.88;;;11.00;;
17858;SDS011;35426;30.698;104.050;2022-08-14T09:10:02;23.50;;;11.43;;
17858;SDS011;35426;30.698;104.050;2022-08-14T09:12:36;12.48;;;11.15;;
17858;SDS011;35426;30.698;104.050;2022-08-14T09:15:18;16.02;;;11.07;;
17858;SDS011;35426;30.698;104.050;2022-08-14T09:18:10;14.82;;;10.55;;
17858;SDS011;35426;30.698;104.050;2022-08-14T09:20:57;18.27;;;10.82;;
17858;SDS011;35426;30.698;104.050;2022-08-14T09:23:34;16.80;;;10.80;;
17858;SDS011;35426;30.698;104.050;2022-08-14T09:26:30;16.52;;;10.30;;
17858;SDS011;35426;30.698;104.050;2022-08-14T09:29:08;12.90;;;10.00;;
17858;SDS011;35426;30.698;104.050;2022-08-14T09:31:50;16.92;;;10.73;;
17858;SDS011;35426;30.698;104.050;2022-08-14T09:34:34;21.55;;;10.70;;
17858;SDS011;35426;30.698;104.050;2022-08-14T09:37:29;13.50;;;10.98;;
17858;SDS011;35426;30.698;104.050;2022-08-14T09:40:20;14.68;;;10.25;;
17858;SDS011;35426;30.698;104.050;2022-08-14T09:43:28;16.75;;;11.05;;
17858;SDS011;35426;30.698;104.050;2022-08-14T09:46:07;20.70;;;11.10;;
17858;SDS011;35426;30.698;104.050;2022-08-14T09:48:56;14.00;;;10.32;;
17858;SDS011;35426;30.698;104.050;2022-08-14T09:51:31;14.88;;;10.27;;
17858;SDS011;35426;30.698;104.050;2022-08-14T09:54:34;16.33;;;10.73;;
17858;SDS011;35426;30.698;104.050;2022-08-14T09:57:10;15.85;;;10.48;;
17858;SDS011;35426;30.698;104.050;2022-08-14T10:00:08;16.55;;;10.45;;
17858;SDS011;35426;30.698;104.050;2022-08-14T10:02:57;17.25;;;10.20;;
17858;SDS011;35426;30.698;104.050;2022-08-14T10:05:33;17.45;;;9.98;;
17858;SDS011;35426;30.698;104.050;2022-08-14T10:08:17;15.40;;;10.30;;
17858;SDS011;35426;30.698;104.050;2022-08-14T10:10:54;13.93;;;10.18;;
17858;SDS011;35426;30.698;104.050;2022-08-14T10:13:30;16.23;;;10.07;;
17858;SDS011;35426;30.698;104.050;2022-08-14T10:16:22;15.00;;;10.50;;
17858;SDS011;35426;30.698;104.050;2022-08-14T10:19:04;15.93;;;9.85;;
17858;SDS011;35426;30.698;104.050;2022-08-14T10:21:40;16.67;;;10.07;;
17858;SDS011;35426;30.698;104.050;2022-08-14T10:24:41;19.30;;;10.40;;
17858;SDS011;35426;30.698;104.050;2022-08-14T10:27:18;12.80;;;9.57;;
17858;SDS011;35426;30.698;104.050;2022-08-14T10:29:55;12.15;;;9.48;;
17858;SDS011;35426;30.698;104.050;2022-08-14T10:32:41;12.35;;;9.65;;
17858;SDS011;35426;30.698;104.050;2022-08-14T10:35:18;14.15;;;9.60;;
17858;SDS011;35426;30.698;104.050;2022-08-14T10:37:59;14.65;;;9.52;;
17858;SDS011;35426;30.698;104.050;2022-08-14T10:40:34;15.23;;;9.30;;
17858;SDS011;35426;30.698;104.050;2022-08-14T10:43:19;16.52;;;9.48;;
17858;SDS011;35426;30.698;104.050;2022-08-14T10:45:54;12.15;;;8.60;;
17858;SDS011;35426;30.698;104.050;2022-08-14T10:48:58;13.80;;;9.82;;
17858;SDS011;35426;30.698;104.050;2022-08-14T10:51:33;15.60;;;9.40;;
17858;SDS011;35426;30.698;104.050;2022-08-14T10:54:09;14.77;;;9.60;;
17858;SDS011;35426;30.698;104.050;2022-08-14T10:57:13;14.00;;;9.80;;
17858;SDS011;35426;30.698;104.050;2022-08-14T10:59:52;15.50;;;9.63;;
17858;SDS011;35426;30.698;104.050;2022-08-14T11:02:28;11.93;;;9.75;;
17858;SDS011;35426;30.698;104.050;2022-08-14T11:05:24;16.77;;;9.68;;
17858;SDS011;35426;30.698;104.050;2022-08-14T11:08:13;13.90;;;9.25;;
17858;SDS011;35426;30.698;104.050;2022-08-14T11:10:48;14.50;;;9.43;;
17858;SDS011;35426;30.698;104.050;2022-08-14T11:13:27;12.23;;;9.40;;
17858;SDS011;35426;30.698;104.050;2022-08-14T11:16:02;16.10;;;9.95;;
17858;SDS011;35426;30.698;104.050;2022-08-14T11:18:36;14.02;;;9.60;;
17858;SDS011;35426;30.698;104.050;2022-08-14T11:21:15;14.63;;;9.40;;
17858;SDS011;35426;30.698;104.050;2022-08-14T11:23:57;12.88;;;9.48;;
17858;SDS011;35426;30.698;104.050;2022-08-14T11:26:52;10.63;;;9.20;;
17858;SDS011;35426;30.698;104.050;2022-08-14T11:29:26;18.52;;;9.70;;
17858;SDS011;35426;30.698;104.050;2022-08-14T11:32:02;17.63;;;9.38;;
17858;SDS011;35426;30.698;104.050;2022-08-14T11:34:43;12.02;;;9.63;;
17858;SDS011;35426;30.698;104.050;2022-08-14T11:37:19;14.65;;;10.00;;
17858;SDS011;35426;30.698;104.050;2022-08-14T11:40:14;17.55;;;9.70;;
17858;SDS011;35426;30.698;104.050;2022-08-14T11:42:56;16.38;;;10.05;;
17858;SDS011;35426;30.698;104.050;2022-08-14T11:45:31;16.25;;;10.60;;
17858;SDS011;35426;30.698;104.050;2022-08-14T11:48:15;17.00;;;12.40;;
17858;SDS011;35426;30.698;104.050;2022-08-14T11:51:13;15.18;;;9.77;;
17858;SDS011;35426;30.698;104.050;2022-08-14T11:53:54;15.27;;;9.95;;
17858;SDS011;35426;30.698;104.050;2022-08-14T11:56:33;12.63;;;9.85;;
17858;SDS011;35426;30.698;104.050;2022-08-14T11:59:13;13.63;;;9.45;;
17858;SDS011;35426;30.698;104.050;2022-08-14T12:02:09;15.93;;;10.07;;
17858;SDS011;35426;30.698;104.050;2022-08-14T12:05:04;15.70;;;10.18;;
17858;SDS011;35426;30.698;104.050;2022-08-14T12:07:47;14.68;;;9.82;;
17858;SDS011;35426;30.698;104.050;2022-08-14T12:10:27;13.63;;;9.50;;
17858;SDS011;35426;30.698;104.050;2022-08-14T12:13:10;15.18;;;10.02;;
17858;SDS011;35426;30.698;104.050;2022-08-14T12:15:45;13.02;;;9.43;;
17858;SDS011;35426;30.698;104.050;2022-08-14T12:18:38;15.65;;;10.20;;
17858;SDS011;35426;30.698;104.050;2022-08-14T12:21:15;16.17;;;10.20;;
17858;SDS011;35426;30.698;104.050;2022-08-14T12:23:59;16.75;;;10.13;;
17858;SDS011;35426;30.698;104.050;2022-08-14T12:26:59;15.35;;;10.70;;
17858;SDS011;35426;30.698;104.050;2022-08-14T12:29:34;14.52;;;10.15;;
17858;SDS011;35426;30.698;104.050;2022-08-14T12:32:10;21.17;;;11.40;;
17858;SDS011;35426;30.698;104.050;2022-08-14T12:34:52;18.15;;;11.43;;
17858;SDS011;35426;30.698;104.050;2022-08-14T12:37:28;19.92;;;11.98;;
17858;SDS011;35426;30.698;104.050;2022-08-14T12:40:13;19.77;;;11.50;;
17858;SDS011;35426;30.698;104.050;2022-08-14T12:42:53;24.23;;;12.00;;
17858;SDS011;35426;30.698;104.050;2022-08-14T12:45:33;17.40;;;11.60;;
17858;SDS011;35426;30.698;104.050;2022-08-14T12:48:07;22.90;;;12.82;;
17858;SDS011;35426;30.698;104.050;2022-08-14T12:50:49;20.98;;;12.57;;
17858;SDS011;35426;30.698;104.050;2022-08-14T12:53:32;16.92;;;12.75;;
17858;SDS011;35426;30.698;104.050;2022-08-14T12:56:08;20.27;;;13.15;;
17858;SDS011;35426;30.698;104.050;2022-08-14T12:58:58;20.33;;;13.23;;
17858;SDS011;35426;30.698;104.050;2022-08-14T13:01:35;20.80;;;11.75;;
17858;SDS011;35426;30.698;104.050;2022-08-14T13:04:22;19.60;;;13.00;;
17858;SDS011;35426;30.698;104.050;2022-08-14T13:07:02;25.25;;;12.52;;
17858;SDS011;35426;30.698;104.050;2022-08-14T13:09:37;21.17;;;13.02;;
17858;SDS011;35426;30.698;104.050;2022-08-14T13:12:24;17.23;;;12.65;;
17858;SDS011;35426;30.698;104.050;2022-08-14T13:15:23;20.73;;;12.90;;
17858;SDS011;35426;30.698;104.050;2022-08-14T13:17:56;27.65;;;13.73;;
17858;SDS011;35426;30.698;104.050;2022-08-14T13:20:33;24.17;;;13.63;;
17858;SDS011;35426;30.698;104.050;2022-08-14T13:23:19;26.95;;;13.98;;
17858;SDS011;35426;30.698;104.050;2022-08-14T13:25:59;24.25;;;12.73;;
17858;SDS011;35426;30.698;104.050;2022-08-14T13:28:33;22.58;;;12.85;;
17858;SDS011;35426;30.698;104.050;2022-08-14T13:31:32;21.00;;;12.38;;
17858;SDS011;35426;30.698;104.050;2022-08-14T13:34:11;21.73;;;12.55;;
17858;SDS011;35426;30.698;104.050;2022-08-14T13:36:45;18.55;;;12.13;;
17858;SDS011;35426;30.698;104.050;2022-08-14T13:39:32;17.65;;;11.85;;
17858;SDS011;35426;30.698;104.050;2022-08-14T13:42:08;17.58;;;11.98;;
17858;SDS011;35426;30.698;104.050;2022-08-14T13:44:43;20.88;;;12.43;;
17858;SDS011;35426;30.698;104.050;2022-08-14T13:47:27;18.60;;;12.40;;
17858;SDS011;35426;30.698;104.050;2022-08-14T13:50:03;21.48;;;12.32;;
17858;SDS011;35426;30.698;104.050;2022-08-14T13:52:40;25.02;;;13.15;;
17858;SDS011;35426;30.698;104.050;2022-08-14T13:55:24;20.60;;;12.93;;
17858;SDS011;35426;30.698;104.050;2022-08-14T13:58:00;23.52;;;13.27;;
17858;SDS011;35426;30.698;104.050;2022-08-14T14:00:55;19.13;;;12.85;;
17858;SDS011;35426;30.698;104.050;2022-08-14T14:03:34;22.67;;;13.25;;
17858;SDS011;35426;30.698;104.050;2022-08-14T14:06:10;29.17;;;14.95;;
17858;SDS011;35426;30.698;104.050;2022-08-14T14:08:51;22.35;;;13.45;;
17858;SDS011;35426;30.698;104.050;2022-08-14T14:11:28;20.90;;;13.77;;
17858;SDS011;35426;30.698;104.050;2022-08-14T14:14:03;20.73;;;13.70;;
17858;SDS011;35426;30.698;104.050;2022-08-14T14:16:58;27.25;;;13.88;;
17858;SDS011;35426;30.698;104.050;2022-08-14T14:19:36;21.35;;;13.75;;
17858;SDS011;35426;30.698;104.050;2022-08-14T14:22:12;27.38;;;14.20;;
17858;SDS011;35426;30.698;104.050;2022-08-14T14:25:07;30.25;;;13.98;;
17858;SDS011;35426;30.698;104.050;2022-08-14T14:27:49;20.23;;;13.45;;
17858;SDS011;35426;30.698;104.050;2022-08-14T14:30:25;22.83;;;13.73;;
17858;SDS011;35426;30.698;104.050;2022-08-14T14:33:20;19.58;;;13.35;;
17858;SDS011;35426;30.698;104.050;2022-08-14T14:36:20;20.67;;;14.82;;
17858;SDS011;35426;30.698;104.050;2022-08-14T14:38:57;21.10;;;14.85;;
17858;SDS011;35426;30.698;104.050;2022-08-14T14:41:32;27.00;;;18.17;;
17858;SDS011;35426;30.698;104.050;2022-08-14T14:44:11;27.00;;;17.08;;
17858;SDS011;35426;30.698;104.050;2022-08-14T14:46:47;26.25;;;17.48;;
17858;SDS011;35426;30.698;104.050;2022-08-14T14:49:24;29.45;;;17.23;;
17858;SDS011;35426;30.698;104.050;2022-08-14T14:52:22;26.60;;;17.42;;
17858;SDS011;35426;30.698;104.050;2022-08-14T14:55:05;28.80;;;17.45;;
17858;SDS011;35426;30.698;104.050;2022-08-14T14:57:45;25.17;;;16.90;;
17858;SDS011;35426;30.698;104.050;2022-08-14T15:00:22;26.98;;;18.20;;
17858;SDS011;35426;30.698;104.050;2022-08-14T15:02:58;24.20;;;17.17;;
17858;SDS011;35426;30.698;104.050;2022-08-14T15:05:45;30.50;;;18.42;;
17858;SDS011;35426;30.698;104.050;2022-08-14T15:08:25;25.65;;;17.88;;
17858;SDS011;35426;30.698;104.050;2022-08-14T15:11:21;32.58;;;17.83;;
17858;SDS011;35426;30.698;104.050;2022-08-14T15:13:57;33.75;;;19.00;;
17858;SDS011;35426;30.698;104.050;2022-08-14T15:16:54;30.05;;;18.73;;
17858;SDS011;35426;30.698;104.050;2022-08-14T15:19:29;27.45;;;17.92;;
17858;SDS011;35426;30.698;104.050;2022-08-14T15:22:05;27.65;;;18.27;;